sensor_id;sensor_type;location;lat;lon;timestamp;temperature;humidity
31542;DHT22;18152;49.986;8.646;2023-04-28T00:01:15;10.80;99.90
31542;DHT22;18152;49.986;8.646;2023-04-28T00:03:41;10.80;99.90
31542;DHT22;18152;49.986;8.646;2023-04-28T00:06:06;10.70;99.90
31542;DHT22;18152;49.986;8.646;2023-04-28T00:08:32;10.80;99.90
31542;DHT22;18152;49.986;8.646;2023-04-28T00:10:57;10.80;99.90
31542;DHT22;18152;49.986;8.646;2023-04-28T00:13:23;10.80;99.90
31542;DHT22;18152;49.986;8.646;2023-04-28T00:15:49;10.80;99.90
31542;DHT22;18152;49.986;8.646;2023-04-28T00:18:17;10.80;99.90
31542;DHT22;18152;49.986;8.646;2023-04-28T00:20:43;10.90;99.90
31542;DHT22;18152;49.986;8.646;2023-04-28T00:23:08;10.90;99.90
31542;DHT22;18152;49.986;8.646;2023-04-28T00:25:34;10.90;99.90
31542;DHT22;18152;49.986;8.646;2023-04-28T00:28:00;10.80;99.90
31542;DHT22;18152;49.986;8.646;2023-04-28T00:30:26;10.80;99.90
31542;DHT22;18152;49.986;8.646;2023-04-28T00:32:51;10.90;99.90
31542;DHT22;18152;49.986;8.646;2023-04-28T00:35:17;10.80;99.90
31542;DHT22;18152;49.986;8.646;2023-04-28T00:37:43;10.80;99.90
31542;DHT22;18152;49.986;8.646;2023-04-28T00:40:09;10.80;99.90
31542;DHT22;18152;49.986;8.646;2023-04-28T00:42:35;10.80;99.90
31542;DHT22;18152;49.986;8.646;2023-04-28T00:45:01;10.70;99.90
31542;DHT22;18152;49.986;8.646;2023-04-28T00:47:34;10.70;99.90
31542;DHT22;18152;49.986;8.646;2023-04-28T00:50:01;10.60;99.90
31542;DHT22;18152;49.986;8.646;2023-04-28T00:52:27;10.60;99.90
31542;DHT22;18152;49.986;8.646;2023-04-28T00:54:53;10.60;99.90
31542;DHT22;18152;49.986;8.646;2023-04-28T00:57:18;10.50;99.90
31542;DHT22;18152;49.986;8.646;2023-04-28T00:59:44;10.60;99.90
31542;DHT22;18152;49.986;8.646;2023-04-28T01:02:10;10.40;99.90
31542;DHT22;18152;49.986;8.646;2023-04-28T01:04:42;10.40;99.90
31542;DHT22;18152;49.986;8.646;2023-04-28T01:07:08;10.40;99.90
31542;DHT22;18152;49.986;8.646;2023-04-28T01:09:33;10.30;99.90
31542;DHT22;18152;49.986;8.646;2023-04-28T01:11:59;10.20;99.90
31542;DHT22;18152;49.986;8.646;2023-04-28T01:14:25;10.20;99.90
31542;DHT22;18152;49.986;8.646;2023-04-28T01:16:50;10.20;99.90
31542;DHT22;18152;49.986;8.646;2023-04-28T01:19:19;10.20;99.90
31542;DHT22;18152;49.986;8.646;2023-04-28T01:21:46;10.20;99.90
31542;DHT22;18152;49.986;8.646;2023-04-28T01:24:12;10.20;99.90
31542;DHT22;18152;49.986;8.646;2023-04-28T01:26:38;10.20;99.90
31542;DHT22;18152;49.986;8.646;2023-04-28T01:29:03;10.20;99.90
31542;DHT22;18152;49.986;8.646;2023-04-28T01:31:29;10.20;99.90
31542;DHT22;18152;49.986;8.646;2023-04-28T01:33:57;10.20;99.90
31542;DHT22;18152;49.986;8.646;2023-04-28T01:36:23;10.30;99.90
31542;DHT22;18152;49.986;8.646;2023-04-28T01:38:49;10.30;99.90
31542;DHT22;18152;49.986;8.646;2023-04-28T01:41:15;10.30;99.90
31542;DHT22;18152;49.986;8.646;2023-04-28T01:43:41;10.30;99.90
31542;DHT22;18152;49.986;8.646;2023-04-28T01:46:11;10.30;99.90
31542;DHT22;18152;49.986;8.646;2023-04-28T01:48:36;10.30;99.90
31542;DHT22;18152;49.986;8.646;2023-04-28T01:51:02;10.20;99.90
31542;DHT22;18152;49.986;8.646;2023-04-28T01:56:11;10.20;99.90
31542;DHT22;18152;49.986;8.646;2023-04-28T01:58:37;10.20;99.90
31542;DHT22;18152;49.986;8.646;2023-04-28T02:01:03;10.10;99.90
31542;DHT22;18152;49.986;8.646;2023-04-28T02:03:29;10.10;99.90
31542;DHT22;18152;49.986;8.646;2023-04-28T02:05:54;10.10;99.90
31542;DHT22;18152;49.986;8.646;2023-04-28T02:08:20;10.10;99.90
31542;DHT22;18152;49.986;8.646;2023-04-28T02:10:45;10.00;99.90
31542;DHT22;18152;49.986;8.646;2023-04-28T02:13:11;10.00;99.90
31542;DHT22;18152;49.986;8.646;2023-04-28T02:15:40;10.00;99.90
31542;DHT22;18152;49.986;8.646;2023-04-28T02:18:06;10.00;99.90
31542;DHT22;18152;49.986;8.646;2023-04-28T02:20:31;10.00;99.90
31542;DHT22;18152;49.986;8.646;2023-04-28T02:22:57;10.00;99.90
31542;DHT22;18152;49.986;8.646;2023-04-28T02:25:22;10.00;99.90
31542;DHT22;18152;49.986;8.646;2023-04-28T02:27:48;9.90;99.90
31542;DHT22;18152;49.986;8.646;2023-04-28T02:30:14;9.90;99.90
31542;DHT22;18152;49.986;8.646;2023-04-28T02:32:39;9.90;99.90
31542;DHT22;18152;49.986;8.646;2023-04-28T02:35:05;9.90;99.90
31542;DHT22;18152;49.986;8.646;2023-04-28T02:37:31;9.90;99.90
31542;DHT22;18152;49.986;8.646;2023-04-28T02:39:56;9.80;99.90
31542;DHT22;18152;49.986;8.646;2023-04-28T02:42:22;9.80;99.90
31542;DHT22;18152;49.986;8.646;2023-04-28T02:44:48;9.80;99.90
31542;DHT22;18152;49.986;8.646;2023-04-28T02:47:13;9.80;99.90
31542;DHT22;18152;49.986;8.646;2023-04-28T02:49:39;9.80;99.90
31542;DHT22;18152;49.986;8.646;2023-04-28T02:52:04;9.80;99.90
31542;DHT22;18152;49.986;8.646;2023-04-28T02:54:30;9.80;99.90
31542;DHT22;18152;49.986;8.646;2023-04-28T02:56:58;9.80;99.90
31542;DHT22;18152;49.986;8.646;2023-04-28T02:59:24;9.80;99.90
31542;DHT22;18152;49.986;8.646;2023-04-28T03:01:50;9.80;99.90
31542;DHT22;18152;49.986;8.646;2023-04-28T03:04:16;9.80;99.90
31542;DHT22;18152;49.986;8.646;2023-04-28T03:06:42;9.90;99.90
31542;DHT22;18152;49.986;8.646;2023-04-28T03:09:08;9.90;99.90
31542;DHT22;18152;49.986;8.646;2023-04-28T03:11:34;9.90;99.90
31542;DHT22;18152;49.986;8.646;2023-04-28T03:14:00;9.90;99.90
31542;DHT22;18152;49.986;8.646;2023-04-28T03:16:25;10.00;99.90
31542;DHT22;18152;49.986;8.646;2023-04-28T03:18:51;9.90;99.90
31542;DHT22;18152;49.986;8.646;2023-04-28T03:21:17;10.00;99.90
31542;DHT22;18152;49.986;8.646;2023-04-28T03:23:42;10.00;99.90
31542;DHT22;18152;49.986;8.646;2023-04-28T03:26:08;10.10;99.90
31542;DHT22;18152;49.986;8.646;2023-04-28T03:28:34;10.00;99.90
31542;DHT22;18152;49.986;8.646;2023-04-28T03:30:59;10.00;99.90
31542;DHT22;18152;49.986;8.646;2023-04-28T03:33:25;9.90;99.90
31542;DHT22;18152;49.986;8.646;2023-04-28T03:35:50;9.90;99.90
31542;DHT22;18152;49.986;8.646;2023-04-28T03:38:17;9.90;99.90
31542;DHT22;18152;49.986;8.646;2023-04-28T03:40:43;9.70;99.90
31542;DHT22;18152;49.986;8.646;2023-04-28T03:43:08;9.70;99.90
31542;DHT22;18152;49.986;8.646;2023-04-28T03:45:34;9.80;99.90
31542;DHT22;18152;49.986;8.646;2023-04-28T03:47:59;9.80;99.90
31542;DHT22;18152;49.986;8.646;2023-04-28T03:50:25;9.80;99.90
31542;DHT22;18152;49.986;8.646;2023-04-28T03:52:50;9.90;99.90
31542;DHT22;18152;49.986;8.646;2023-04-28T03:55:16;9.90;99.90
31542;DHT22;18152;49.986;8.646;2023-04-28T03:57:42;9.90;99.90
31542;DHT22;18152;49.986;8.646;2023-04-28T04:00:08;9.90;99.90
31542;DHT22;18152;49.986;8.646;2023-04-28T04:02:34;9.90;99.90
31542;DHT22;18152;49.986;8.646;2023-04-28T04:05:00;10.00;99.90
31542;DHT22;18152;49.986;8.646;2023-04-28T04:07:25;10.00;99.90
31542;DHT22;18152;49.986;8.646;2023-04-28T04:09:51;10.00;99.90
31542;DHT22;18152;49.986;8.646;2023-04-28T04:12:16;10.00;99.90
31542;DHT22;18152;49.986;8.646;2023-04-28T04:14:42;10.00;99.90
31542;DHT22;18152;49.986;8.646;2023-04-28T04:17:08;9.90;99.90
31542;DHT22;18152;49.986;8.646;2023-04-28T04:19:34;9.90;99.90
31542;DHT22;18152;49.986;8.646;2023-04-28T04:21:59;9.90;99.90
31542;DHT22;18152;49.986;8.646;2023-04-28T04:24:25;9.90;99.90
31542;DHT22;18152;49.986;8.646;2023-04-28T04:26:51;9.90;99.90
31542;DHT22;18152;49.986;8.646;2023-04-28T04:29:16;9.90;99.90
31542;DHT22;18152;49.986;8.646;2023-04-28T04:31:42;9.90;99.90
31542;DHT22;18152;49.986;8.646;2023-04-28T04:34:10;10.00;99.90
31542;DHT22;18152;49.986;8.646;2023-04-28T04:36:35;9.90;99.90
31542;DHT22;18152;49.986;8.646;2023-04-28T04:39:01;9.90;99.90
31542;DHT22;18152;49.986;8.646;2023-04-28T04:41:26;9.90;99.90
31542;DHT22;18152;49.986;8.646;2023-04-28T04:43:52;9.90;99.90
31542;DHT22;18152;49.986;8.646;2023-04-28T04:46:17;9.90;99.90
31542;DHT22;18152;49.986;8.646;2023-04-28T04:48:43;9.80;99.90
31542;DHT22;18152;49.986;8.646;2023-04-28T04:51:08;9.90;99.90
31542;DHT22;18152;49.986;8.646;2023-04-28T04:53:34;9.90;99.90
31542;DHT22;18152;49.986;8.646;2023-04-28T04:56:00;9.90;99.90
31542;DHT22;18152;49.986;8.646;2023-04-28T04:58:26;9.90;99.90
31542;DHT22;18152;49.986;8.646;2023-04-28T05:00:51;10.00;99.90
31542;DHT22;18152;49.986;8.646;2023-04-28T05:03:17;10.00;99.90
31542;DHT22;18152;49.986;8.646;2023-04-28T05:05:42;10.10;99.90
31542;DHT22;18152;49.986;8.646;2023-04-28T05:08:11;10.10;99.90
31542;DHT22;18152;49.986;8.646;2023-04-28T05:10:37;10.20;99.90
31542;DHT22;18152;49.986;8.646;2023-04-28T05:13:02;10.20;99.90
31542;DHT22;18152;49.986;8.646;2023-04-28T05:15:28;10.20;99.90
31542;DHT22;18152;49.986;8.646;2023-04-28T05:17:55;10.30;99.90
31542;DHT22;18152;49.986;8.646;2023-04-28T05:20:21;10.30;99.90
31542;DHT22;18152;49.986;8.646;2023-04-28T05:22:46;10.30;99.90
31542;DHT22;18152;49.986;8.646;2023-04-28T05:25:12;10.30;99.90
31542;DHT22;18152;49.986;8.646;2023-04-28T05:27:37;10.30;99.90
31542;DHT22;18152;49.986;8.646;2023-04-28T05:30:07;10.30;99.90
31542;DHT22;18152;49.986;8.646;2023-04-28T05:32:33;10.30;99.90
31542;DHT22;18152;49.986;8.646;2023-04-28T05:34:59;10.30;99.90
31542;DHT22;18152;49.986;8.646;2023-04-28T05:37:24;10.30;99.90
31542;DHT22;18152;49.986;8.646;2023-04-28T05:39:50;10.40;99.90
31542;DHT22;18152;49.986;8.646;2023-04-28T05:42:15;10.30;99.90
31542;DHT22;18152;49.986;8.646;2023-04-28T05:44:42;10.30;99.90
31542;DHT22;18152;49.986;8.646;2023-04-28T05:47:07;10.20;99.90
31542;DHT22;18152;49.986;8.646;2023-04-28T05:49:33;10.30;99.90
31542;DHT22;18152;49.986;8.646;2023-04-28T05:51:58;10.30;99.90
31542;DHT22;18152;49.986;8.646;2023-04-28T05:54:24;10.30;99.90
31542;DHT22;18152;49.986;8.646;2023-04-28T05:56:50;10.40;99.90
31542;DHT22;18152;49.986;8.646;2023-04-28T05:59:15;10.40;99.90
31542;DHT22;18152;49.986;8.646;2023-04-28T06:01:41;10.40;99.90
31542;DHT22;18152;49.986;8.646;2023-04-28T06:04:06;10.40;99.90
31542;DHT22;18152;49.986;8.646;2023-04-28T06:06:32;10.30;99.90
31542;DHT22;18152;49.986;8.646;2023-04-28T06:08:58;10.30;99.90
31542;DHT22;18152;49.986;8.646;2023-04-28T06:11:24;10.20;99.90
31542;DHT22;18152;49.986;8.646;2023-04-28T06:13:50;10.30;99.90
31542;DHT22;18152;49.986;8.646;2023-04-28T06:16:16;10.30;99.90
31542;DHT22;18152;49.986;8.646;2023-04-28T06:18:42;10.20;99.90
31542;DHT22;18152;49.986;8.646;2023-04-28T06:21:08;10.30;99.90
31542;DHT22;18152;49.986;8.646;2023-04-28T06:23:33;10.30;99.90
31542;DHT22;18152;49.986;8.646;2023-04-28T06:26:00;10.30;99.90
31542;DHT22;18152;49.986;8.646;2023-04-28T06:28:25;10.20;99.90
31542;DHT22;18152;49.986;8.646;2023-04-28T06:30:51;10.20;99.90
31542;DHT22;18152;49.986;8.646;2023-04-28T06:33:16;10.10;99.90
31542;DHT22;18152;49.986;8.646;2023-04-28T06:35:42;10.20;99.90
31542;DHT22;18152;49.986;8.646;2023-04-28T06:38:07;10.10;99.90
31542;DHT22;18152;49.986;8.646;2023-04-28T06:40:33;10.20;99.90
31542;DHT22;18152;49.986;8.646;2023-04-28T06:42:59;10.10;99.90
31542;DHT22;18152;49.986;8.646;2023-04-28T06:45:24;10.20;99.90
31542;DHT22;18152;49.986;8.646;2023-04-28T06:47:50;10.30;99.90
31542;DHT22;18152;49.986;8.646;2023-04-28T06:50:16;10.30;99.90
31542;DHT22;18152;49.986;8.646;2023-04-28T06:52:42;10.30;99.90
31542;DHT22;18152;49.986;8.646;2023-04-28T06:55:08;10.30;99.90
31542;DHT22;18152;49.986;8.646;2023-04-28T06:57:34;10.40;99.90
31542;DHT22;18152;49.986;8.646;2023-04-28T06:59:59;10.40;99.90
31542;DHT22;18152;49.986;8.646;2023-04-28T07:02:25;10.50;99.90
31542;DHT22;18152;49.986;8.646;2023-04-28T07:04:51;10.40;99.90
31542;DHT22;18152;49.986;8.646;2023-04-28T07:07:17;10.50;99.90
31542;DHT22;18152;49.986;8.646;2023-04-28T07:09:42;10.50;99.90
31542;DHT22;18152;49.986;8.646;2023-04-28T07:12:08;10.50;99.90
31542;DHT22;18152;49.986;8.646;2023-04-28T07:14:33;10.50;99.90
31542;DHT22;18152;49.986;8.646;2023-04-28T07:16:59;10.50;99.90
31542;DHT22;18152;49.986;8.646;2023-04-28T07:19:25;10.50;99.90
31542;DHT22;18152;49.986;8.646;2023-04-28T07:21:50;10.40;99.90
31542;DHT22;18152;49.986;8.646;2023-04-28T07:24:16;10.60;99.90
31542;DHT22;18152;49.986;8.646;2023-04-28T07:26:41;10.60;99.90
31542;DHT22;18152;49.986;8.646;2023-04-28T07:29:07;10.80;99.90
31542;DHT22;18152;49.986;8.646;2023-04-28T07:31:33;10.90;99.90
31542;DHT22;18152;49.986;8.646;2023-04-28T07:33:59;10.90;99.90
31542;DHT22;18152;49.986;8.646;2023-04-28T07:36:25;10.80;99.90
31542;DHT22;18152;49.986;8.646;2023-04-28T07:38:51;10.90;99.90
31542;DHT22;18152;49.986;8.646;2023-04-28T07:41:16;11.10;99.90
31542;DHT22;18152;49.986;8.646;2023-04-28T07:43:43;11.00;99.90
31542;DHT22;18152;49.986;8.646;2023-04-28T07:46:08;10.90;99.90
31542;DHT22;18152;49.986;8.646;2023-04-28T07:48:34;10.90;99.90
31542;DHT22;18152;49.986;8.646;2023-04-28T07:51:00;10.80;99.90
31542;DHT22;18152;49.986;8.646;2023-04-28T07:53:26;10.90;99.90
31542;DHT22;18152;49.986;8.646;2023-04-28T07:55:53;10.90;99.90
31542;DHT22;18152;49.986;8.646;2023-04-28T07:58:18;11.00;99.90
31542;DHT22;18152;49.986;8.646;2023-04-28T08:00:44;10.90;99.90
31542;DHT22;18152;49.986;8.646;2023-04-28T08:03:09;10.90;99.90
31542;DHT22;18152;49.986;8.646;2023-04-28T08:05:37;11.00;99.90
31542;DHT22;18152;49.986;8.646;2023-04-28T08:08:02;11.10;99.90
31542;DHT22;18152;49.986;8.646;2023-04-28T08:10:28;11.10;99.90
31542;DHT22;18152;49.986;8.646;2023-04-28T08:12:54;11.10;99.90
31542;DHT22;18152;49.986;8.646;2023-04-28T08:15:19;11.20;99.90
31542;DHT22;18152;49.986;8.646;2023-04-28T08:17:45;11.20;99.90
31542;DHT22;18152;49.986;8.646;2023-04-28T08:20:11;11.30;99.90
31542;DHT22;18152;49.986;8.646;2023-04-28T08:22:39;11.30;99.90
31542;DHT22;18152;49.986;8.646;2023-04-28T08:25:05;11.20;99.90
31542;DHT22;18152;49.986;8.646;2023-04-28T08:27:31;11.10;99.90
31542;DHT22;18152;49.986;8.646;2023-04-28T08:29:56;11.20;99.90
31542;DHT22;18152;49.986;8.646;2023-04-28T08:32:22;11.20;99.90
31542;DHT22;18152;49.986;8.646;2023-04-28T08:34:47;11.30;99.90
31542;DHT22;18152;49.986;8.646;2023-04-28T08:37:13;11.30;99.90
31542;DHT22;18152;49.986;8.646;2023-04-28T08:39:38;11.40;99.90
31542;DHT22;18152;49.986;8.646;2023-04-28T08:42:04;11.50;99.90
31542;DHT22;18152;49.986;8.646;2023-04-28T08:44:39;11.50;99.90
31542;DHT22;18152;49.986;8.646;2023-04-28T08:47:13;11.60;99.90
31542;DHT22;18152;49.986;8.646;2023-04-28T08:49:40;11.60;99.90
31542;DHT22;18152;49.986;8.646;2023-04-28T08:52:16;11.60;99.90
31542;DHT22;18152;49.986;8.646;2023-04-28T08:54:42;11.70;99.90
31542;DHT22;18152;49.986;8.646;2023-04-28T08:57:09;11.70;99.90
31542;DHT22;18152;49.986;8.646;2023-04-28T08:59:38;11.70;99.90
31542;DHT22;18152;49.986;8.646;2023-04-28T09:02:07;11.80;99.90
31542;DHT22;18152;49.986;8.646;2023-04-28T09:04:32;11.80;99.90
31542;DHT22;18152;49.986;8.646;2023-04-28T09:06:58;11.90;99.90
31542;DHT22;18152;49.986;8.646;2023-04-28T09:09:24;11.80;99.90
31542;DHT22;18152;49.986;8.646;2023-04-28T09:12:00;11.80;99.90
31542;DHT22;18152;49.986;8.646;2023-04-28T09:14:27;11.80;99.90
31542;DHT22;18152;49.986;8.646;2023-04-28T09:16:53;11.70;99.90
31542;DHT22;18152;49.986;8.646;2023-04-28T09:19:20;11.80;99.90
31542;DHT22;18152;49.986;8.646;2023-04-28T09:22:05;12.00;99.90
31542;DHT22;18152;49.986;8.646;2023-04-28T09:24:38;11.90;99.90
31542;DHT22;18152;49.986;8.646;2023-04-28T09:27:05;12.00;99.90
31542;DHT22;18152;49.986;8.646;2023-04-28T09:29:37;12.10;99.90
31542;DHT22;18152;49.986;8.646;2023-04-28T09:32:13;12.00;99.90
31542;DHT22;18152;49.986;8.646;2023-04-28T09:34:50;12.20;99.90
31542;DHT22;18152;49.986;8.646;2023-04-28T09:37:20;12.30;99.90
31542;DHT22;18152;49.986;8.646;2023-04-28T09:39:51;12.30;99.90
31542;DHT22;18152;49.986;8.646;2023-04-28T09:42:37;12.40;99.90
31542;DHT22;18152;49.986;8.646;2023-04-28T09:45:10;12.40;99.90
31542;DHT22;18152;49.986;8.646;2023-04-28T09:47:37;12.50;99.90
31542;DHT22;18152;49.986;8.646;2023-04-28T09:50:04;12.60;99.90
31542;DHT22;18152;49.986;8.646;2023-04-28T09:52:34;12.40;99.90
31542;DHT22;18152;49.986;8.646;2023-04-28T09:55:03;12.40;99.90
31542;DHT22;18152;49.986;8.646;2023-04-28T09:57:30;12.40;99.90
31542;DHT22;18152;49.986;8.646;2023-04-28T09:59:59;12.50;99.90
31542;DHT22;18152;49.986;8.646;2023-04-28T10:02:26;12.60;99.90
31542;DHT22;18152;49.986;8.646;2023-04-28T10:04:52;12.60;99.90
31542;DHT22;18152;49.986;8.646;2023-04-28T10:07:19;12.60;99.90
31542;DHT22;18152;49.986;8.646;2023-04-28T10:09:46;12.80;99.90
31542;DHT22;18152;49.986;8.646;2023-04-28T10:12:22;12.80;99.90
31542;DHT22;18152;49.986;8.646;2023-04-28T10:14:49;12.90;99.90
31542;DHT22;18152;49.986;8.646;2023-04-28T10:17:16;13.00;99.90
31542;DHT22;18152;49.986;8.646;2023-04-28T10:19:44;13.10;99.90
31542;DHT22;18152;49.986;8.646;2023-04-28T10:22:33;13.40;99.90
31542;DHT22;18152;49.986;8.646;2023-04-28T10:27:44;13.30;99.90
31542;DHT22;18152;49.986;8.646;2023-04-28T10:30:15;13.50;99.90
31542;DHT22;18152;49.986;8.646;2023-04-28T10:32:42;13.70;99.90
31542;DHT22;18152;49.986;8.646;2023-04-28T10:38:14;13.90;99.90
31542;DHT22;18152;49.986;8.646;2023-04-28T10:40:42;13.80;99.90
31542;DHT22;18152;49.986;8.646;2023-04-28T10:43:12;14.00;99.90
31542;DHT22;18152;49.986;8.646;2023-04-28T10:56:12;14.10;99.90
31542;DHT22;18152;49.986;8.646;2023-04-28T10:58:43;14.20;99.90
31542;DHT22;18152;49.986;8.646;2023-04-28T11:01:33;14.30;99.90
31542;DHT22;18152;49.986;8.646;2023-04-28T11:04:09;14.40;99.90
31542;DHT22;18152;49.986;8.646;2023-04-28T11:06:41;14.80;99.90
31542;DHT22;18152;49.986;8.646;2023-04-28T11:16:52;15.60;99.90
31542;DHT22;18152;49.986;8.646;2023-04-28T11:19:23;16.00;99.90
31542;DHT22;18152;49.986;8.646;2023-04-28T11:21:50;16.20;99.90
31542;DHT22;18152;49.986;8.646;2023-04-28T11:24:16;16.20;99.90
31542;DHT22;18152;49.986;8.646;2023-04-28T11:26:43;16.40;99.90
31542;DHT22;18152;49.986;8.646;2023-04-28T11:29:09;15.90;99.90
31542;DHT22;18152;49.986;8.646;2023-04-28T11:31:35;16.20;99.90
31542;DHT22;18152;49.986;8.646;2023-04-28T11:34:06;16.10;99.90
31542;DHT22;18152;49.986;8.646;2023-04-28T11:39:00;15.90;99.90
31542;DHT22;18152;49.986;8.646;2023-04-28T11:41:25;16.10;99.90
31542;DHT22;18152;49.986;8.646;2023-04-28T11:43:51;16.10;99.90
31542;DHT22;18152;49.986;8.646;2023-04-28T11:46:22;16.20;99.90
31542;DHT22;18152;49.986;8.646;2023-04-28T11:48:58;16.40;99.90
31542;DHT22;18152;49.986;8.646;2023-04-28T11:51:28;16.70;99.90
31542;DHT22;18152;49.986;8.646;2023-04-28T11:53:54;16.40;99.90
31542;DHT22;18152;49.986;8.646;2023-04-28T11:56:19;15.90;99.90
31542;DHT22;18152;49.986;8.646;2023-04-28T11:58:45;15.90;99.90
31542;DHT22;18152;49.986;8.646;2023-04-28T12:01:23;15.80;99.90
31542;DHT22;18152;49.986;8.646;2023-04-28T12:03:49;15.80;99.90
31542;DHT22;18152;49.986;8.646;2023-04-28T12:06:17;15.90;99.90
31542;DHT22;18152;49.986;8.646;2023-04-28T12:08:43;16.50;99.90
31542;DHT22;18152;49.986;8.646;2023-04-28T12:11:09;16.80;99.90
31542;DHT22;18152;49.986;8.646;2023-04-28T12:13:36;17.70;99.90
31542;DHT22;18152;49.986;8.646;2023-04-28T12:16:03;18.20;99.90
31542;DHT22;18152;49.986;8.646;2023-04-28T12:18:36;19.00;99.90
31542;DHT22;18152;49.986;8.646;2023-04-28T12:21:03;18.90;99.90
31542;DHT22;18152;49.986;8.646;2023-04-28T12:23:34;18.30;99.90
31542;DHT22;18152;49.986;8.646;2023-04-28T12:26:01;17.70;99.90
31542;DHT22;18152;49.986;8.646;2023-04-28T12:28:37;17.30;99.90
31542;DHT22;18152;49.986;8.646;2023-04-28T12:31:04;17.30;99.90
31542;DHT22;18152;49.986;8.646;2023-04-28T12:33:30;17.50;99.90
31542;DHT22;18152;49.986;8.646;2023-04-28T12:35:58;17.70;99.90
31542;DHT22;18152;49.986;8.646;2023-04-28T12:38:25;17.50;99.90
31542;DHT22;18152;49.986;8.646;2023-04-28T12:40:51;17.90;99.90
31542;DHT22;18152;49.986;8.646;2023-04-28T12:43:17;18.40;99.90
31542;DHT22;18152;49.986;8.646;2023-04-28T12:45:43;19.10;99.90
31542;DHT22;18152;49.986;8.646;2023-04-28T12:48:09;19.70;99.90
31542;DHT22;18152;49.986;8.646;2023-04-28T12:50:35;20.20;99.90
31542;DHT22;18152;49.986;8.646;2023-04-28T12:53:00;19.00;99.90
31542;DHT22;18152;49.986;8.646;2023-04-28T12:55:26;19.20;99.90
31542;DHT22;18152;49.986;8.646;2023-04-28T12:57:51;19.90;99.90
31542;DHT22;18152;49.986;8.646;2023-04-28T13:00:17;19.90;99.90
31542;DHT22;18152;49.986;8.646;2023-04-28T13:02:47;19.40;99.90
31542;DHT22;18152;49.986;8.646;2023-04-28T13:05:13;19.00;99.90
31542;DHT22;18152;49.986;8.646;2023-04-28T13:07:38;18.60;99.90
31542;DHT22;18152;49.986;8.646;2023-04-28T13:10:05;18.20;99.90
31542;DHT22;18152;49.986;8.646;2023-04-28T13:12:31;17.80;99.90
31542;DHT22;18152;49.986;8.646;2023-04-28T13:14:57;17.60;99.90
31542;DHT22;18152;49.986;8.646;2023-04-28T13:17:23;17.30;99.90
31542;DHT22;18152;49.986;8.646;2023-04-28T13:19:48;17.00;99.90
31542;DHT22;18152;49.986;8.646;2023-04-28T13:22:14;17.10;99.90
31542;DHT22;18152;49.986;8.646;2023-04-28T13:24:40;17.10;99.90
31542;DHT22;18152;49.986;8.646;2023-04-28T13:27:05;17.10;99.90
31542;DHT22;18152;49.986;8.646;2023-04-28T13:29:34;17.30;99.90
31542;DHT22;18152;49.986;8.646;2023-04-28T13:32:02;17.60;99.90
31542;DHT22;18152;49.986;8.646;2023-04-28T13:34:27;17.50;99.90
31542;DHT22;18152;49.986;8.646;2023-04-28T13:36:53;17.50;99.90
31542;DHT22;18152;49.986;8.646;2023-04-28T13:39:20;17.40;99.90
31542;DHT22;18152;49.986;8.646;2023-04-28T13:41:46;17.30;99.90
31542;DHT22;18152;49.986;8.646;2023-04-28T13:44:13;17.00;99.90
31542;DHT22;18152;49.986;8.646;2023-04-28T13:46:40;17.10;99.90
31542;DHT22;18152;49.986;8.646;2023-04-28T13:49:06;17.30;99.90
31542;DHT22;18152;49.986;8.646;2023-04-28T13:51:31;17.40;99.90
31542;DHT22;18152;49.986;8.646;2023-04-28T13:53:58;17.50;99.90
31542;DHT22;18152;49.986;8.646;2023-04-28T13:56:23;17.50;99.90
31542;DHT22;18152;49.986;8.646;2023-04-28T13:58:49;17.20;99.90
31542;DHT22;18152;49.986;8.646;2023-04-28T14:01:14;17.10;99.90
31542;DHT22;18152;49.986;8.646;2023-04-28T14:03:40;16.90;99.90
31542;DHT22;18152;49.986;8.646;2023-04-28T14:06:06;16.90;99.90
31542;DHT22;18152;49.986;8.646;2023-04-28T14:08:32;16.90;99.90
31542;DHT22;18152;49.986;8.646;2023-04-28T14:10:58;16.90;99.90
31542;DHT22;18152;49.986;8.646;2023-04-28T14:13:23;17.00;99.90
31542;DHT22;18152;49.986;8.646;2023-04-28T14:15:52;17.00;99.90
31542;DHT22;18152;49.986;8.646;2023-04-28T14:18:18;17.40;99.90
31542;DHT22;18152;49.986;8.646;2023-04-28T14:20:44;17.40;99.90
31542;DHT22;18152;49.986;8.646;2023-04-28T14:23:09;17.60;99.90
31542;DHT22;18152;49.986;8.646;2023-04-28T14:25:35;17.70;99.90
31542;DHT22;18152;49.986;8.646;2023-04-28T14:28:02;17.70;99.90
31542;DHT22;18152;49.986;8.646;2023-04-28T14:30:27;17.80;99.90
31542;DHT22;18152;49.986;8.646;2023-04-28T14:32:53;17.40;99.90
31542;DHT22;18152;49.986;8.646;2023-04-28T14:35:19;17.40;99.90
31542;DHT22;18152;49.986;8.646;2023-04-28T14:37:47;17.20;99.90
31542;DHT22;18152;49.986;8.646;2023-04-28T14:40:13;17.30;99.90
31542;DHT22;18152;49.986;8.646;2023-04-28T14:42:40;17.40;99.90
31542;DHT22;18152;49.986;8.646;2023-04-28T14:45:06;17.40;99.90
31542;DHT22;18152;49.986;8.646;2023-04-28T14:47:34;17.70;99.90
31542;DHT22;18152;49.986;8.646;2023-04-28T14:50:01;18.10;99.90
31542;DHT22;18152;49.986;8.646;2023-04-28T14:52:26;18.00;99.90
31542;DHT22;18152;49.986;8.646;2023-04-28T14:54:54;18.00;99.90
31542;DHT22;18152;49.986;8.646;2023-04-28T14:57:20;18.20;99.90
31542;DHT22;18152;49.986;8.646;2023-04-28T14:59:46;18.40;99.90
31542;DHT22;18152;49.986;8.646;2023-04-28T15:02:11;18.30;99.90
31542;DHT22;18152;49.986;8.646;2023-04-28T15:04:40;18.10;99.90
31542;DHT22;18152;49.986;8.646;2023-04-28T15:07:05;17.90;99.90
31542;DHT22;18152;49.986;8.646;2023-04-28T15:09:34;17.70;99.90
31542;DHT22;18152;49.986;8.646;2023-04-28T15:12:01;17.50;99.90
31542;DHT22;18152;49.986;8.646;2023-04-28T15:14:28;17.60;99.90
31542;DHT22;18152;49.986;8.646;2023-04-28T15:16:53;17.60;99.90
31542;DHT22;18152;49.986;8.646;2023-04-28T15:19:19;17.70;99.90
31542;DHT22;18152;49.986;8.646;2023-04-28T15:21:45;17.60;99.90
31542;DHT22;18152;49.986;8.646;2023-04-28T15:24:11;17.50;99.90
31542;DHT22;18152;49.986;8.646;2023-04-28T15:26:37;17.40;99.90
31542;DHT22;18152;49.986;8.646;2023-04-28T15:29:03;17.60;99.90
31542;DHT22;18152;49.986;8.646;2023-04-28T15:31:29;17.80;99.90
31542;DHT22;18152;49.986;8.646;2023-04-28T15:33:54;18.00;99.90
31542;DHT22;18152;49.986;8.646;2023-04-28T15:36:21;17.90;99.90
31542;DHT22;18152;49.986;8.646;2023-04-28T15:38:47;17.70;99.90
31542;DHT22;18152;49.986;8.646;2023-04-28T15:41:13;17.70;99.90
31542;DHT22;18152;49.986;8.646;2023-04-28T15:43:40;17.80;99.90
31542;DHT22;18152;49.986;8.646;2023-04-28T15:46:06;17.90;99.90
31542;DHT22;18152;49.986;8.646;2023-04-28T15:48:35;17.90;99.90
31542;DHT22;18152;49.986;8.646;2023-04-28T15:51:03;17.90;99.90
31542;DHT22;18152;49.986;8.646;2023-04-28T15:53:28;17.70;99.90
31542;DHT22;18152;49.986;8.646;2023-04-28T15:55:54;17.60;99.90
31542;DHT22;18152;49.986;8.646;2023-04-28T15:58:19;17.60;99.90